sensor_id;sensor_type;location;lat;lon;timestamp;pressure;altitude;pressure_sealevel;temperature;humidity
73085;BME280;62974;49.460;10.892;2023-03-23T00:00:05;97217.97;;;9.33;80.24
73085;BME280;62974;49.460;10.892;2023-03-23T00:02:32;97224.84;;;8.42;86.09
73085;BME280;62974;49.460;10.892;2023-03-23T00:05:00;97214.25;;;9.01;83.06
73085;BME280;62974;49.460;10.892;2023-03-23T00:07:28;97225.34;;;8.18;86.81
73085;BME280;62974;49.460;10.892;2023-03-23T00:09:56;97221.63;;;8.73;86.67
73085;BME280;62974;49.460;10.892;2023-03-23T00:12:24;97208.91;;;9.34;81.51
73085;BME280;62974;49.460;10.892;2023-03-23T00:14:54;97207.44;;;9.58;79.65
73085;BME280;62974;49.460;10.892;2023-03-23T00:17:20;97225.59;;;8.23;87.05
73085;BME280;62974;49.460;10.892;2023-03-23T00:19:48;97212.63;;;8.20;89.94
73085;BME280;62974;49.460;10.892;2023-03-23T00:22:16;97192.41;;;8.84;86.76
73085;BME280;62974;49.460;10.892;2023-03-23T00:24:44;97182.72;;;8.64;87.49
73085;BME280;62974;49.460;10.892;2023-03-23T00:27:12;97181.31;;;9.01;85.35
73085;BME280;62974;49.460;10.892;2023-03-23T00:29:40;97169.56;;;9.34;81.51
73085;BME280;62974;49.460;10.892;2023-03-23T00:32:08;97177.31;;;9.56;79.07
73085;BME280;62974;49.460;10.892;2023-03-23T00:34:38;97179.41;;;9.67;78.49
73085;BME280;62974;49.460;10.892;2023-03-23T00:37:06;97172.97;;;9.74;77.26
73085;BME280;62974;49.460;10.892;2023-03-23T00:39:33;97179.72;;;9.83;77.07
73085;BME280;62974;49.460;10.892;2023-03-23T00:42:04;97183.25;;;9.90;76.48
73085;BME280;62974;49.460;10.892;2023-03-23T00:44:33;97187.19;;;9.81;77.03
73085;BME280;62974;49.460;10.892;2023-03-23T00:47:00;97182.41;;;9.83;77.33
73085;BME280;62974;49.460;10.892;2023-03-23T00:49:28;97180.78;;;9.82;76.93
73085;BME280;62974;49.460;10.892;2023-03-23T00:51:57;97187.38;;;9.80;76.88
73085;BME280;62974;49.460;10.892;2023-03-23T00:54:24;97179.75;;;9.77;77.50
73085;BME280;62974;49.460;10.892;2023-03-23T00:56:52;97196.91;;;9.69;77.68
73085;BME280;62974;49.460;10.892;2023-03-23T00:59:19;97197.72;;;9.83;77.00
73085;BME280;62974;49.460;10.892;2023-03-23T01:01:47;97193.16;;;9.77;77.00
73085;BME280;62974;49.460;10.892;2023-03-23T01:04:14;97194.81;;;9.78;77.21
73085;BME280;62974;49.460;10.892;2023-03-23T01:06:43;97187.19;;;9.81;76.89
73085;BME280;62974;49.460;10.892;2023-03-23T01:09:11;97190.88;;;9.80;76.57
73085;BME280;62974;49.460;10.892;2023-03-23T01:11:40;97186.97;;;9.76;77.38
73085;BME280;62974;49.460;10.892;2023-03-23T01:14:06;97183.28;;;9.77;77.21
73085;BME280;62974;49.460;10.892;2023-03-23T01:16:33;97183.06;;;9.79;76.85
73085;BME280;62974;49.460;10.892;2023-03-23T01:19:01;97177.28;;;9.75;76.73
73085;BME280;62974;49.460;10.892;2023-03-23T01:21:27;97182.25;;;9.78;76.80
73085;BME280;62974;49.460;10.892;2023-03-23T01:23:54;97175.81;;;9.79;76.94
73085;BME280;62974;49.460;10.892;2023-03-23T01:26:23;97164.06;;;9.80;76.83
73085;BME280;62974;49.460;10.892;2023-03-23T01:28:49;97164.69;;;9.82;76.70
73085;BME280;62974;49.460;10.892;2023-03-23T01:31:18;97163.06;;;9.75;76.87
73085;BME280;62974;49.460;10.892;2023-03-23T01:33:44;97158.75;;;9.74;76.66
73085;BME280;62974;49.460;10.892;2023-03-23T01:36:14;97156.66;;;9.82;75.81
73085;BME280;62974;49.460;10.892;2023-03-23T01:38:41;97151.94;;;9.78;75.79
73085;BME280;62974;49.460;10.892;2023-03-23T01:41:09;97151.06;;;9.84;75.67
73085;BME280;62974;49.460;10.892;2023-03-23T01:43:36;97153.97;;;9.82;75.17
73085;BME280;62974;49.460;10.892;2023-03-23T01:46:03;97158.09;;;9.85;75.23
73085;BME280;62974;49.460;10.892;2023-03-23T01:48:32;97143.66;;;9.86;74.31
73085;BME280;62974;49.460;10.892;2023-03-23T01:51:03;97142.59;;;9.94;74.08
73085;BME280;62974;49.460;10.892;2023-03-23T01:53:36;97142.16;;;9.97;73.40
73085;BME280;62974;49.460;10.892;2023-03-23T01:56:06;97144.63;;;9.98;73.13
73085;BME280;62974;49.460;10.892;2023-03-23T01:58:34;97139.63;;;10.08;72.79
73085;BME280;62974;49.460;10.892;2023-03-23T02:01:05;97136.75;;;10.10;72.98
73085;BME280;62974;49.460;10.892;2023-03-23T02:03:35;97132.44;;;10.02;73.13
73085;BME280;62974;49.460;10.892;2023-03-23T02:06:02;97131.38;;;10.10;73.14
73085;BME280;62974;49.460;10.892;2023-03-23T02:08:31;97129.28;;;10.12;72.72
73085;BME280;62974;49.460;10.892;2023-03-23T02:10:59;97127.03;;;10.09;73.47
73085;BME280;62974;49.460;10.892;2023-03-23T02:13:27;97115.88;;;10.12;73.08
73085;BME280;62974;49.460;10.892;2023-03-23T02:16:00;97124.97;;;10.11;73.46
73085;BME280;62974;49.460;10.892;2023-03-23T02:18:37;97110.28;;;10.20;72.80
73085;BME280;62974;49.460;10.892;2023-03-23T02:21:34;97115.00;;;10.24;72.51
73085;BME280;62974;49.460;10.892;2023-03-23T02:27:18;97108.44;;;10.14;73.09
73085;BME280;62974;49.460;10.892;2023-03-23T02:30:08;97102.41;;;10.25;72.73
73085;BME280;62974;49.460;10.892;2023-03-23T02:32:56;97101.22;;;10.21;72.96
73085;BME280;62974;49.460;10.892;2023-03-23T02:35:31;97101.22;;;10.21;72.57
73085;BME280;62974;49.460;10.892;2023-03-23T02:38:02;97101.00;;;10.22;72.32
73085;BME280;62974;49.460;10.892;2023-03-23T02:40:33;97090.41;;;10.27;72.60
73085;BME280;62974;49.460;10.892;2023-03-23T02:43:03;97092.72;;;10.24;72.64
73085;BME280;62974;49.460;10.892;2023-03-23T02:45:33;97097.50;;;10.22;72.96
73085;BME280;62974;49.460;10.892;2023-03-23T02:48:01;97092.50;;;10.25;72.33
73085;BME280;62974;49.460;10.892;2023-03-23T02:50:31;97089.63;;;10.27;72.01
73085;BME280;62974;49.460;10.892;2023-03-23T02:53:00;97092.31;;;10.27;72.36
73085;BME280;62974;49.460;10.892;2023-03-23T02:55:28;97099.75;;;10.25;72.21
73085;BME280;62974;49.460;10.892;2023-03-23T02:57:56;97091.63;;;10.31;71.84
73085;BME280;62974;49.460;10.892;2023-03-23T03:00:22;97083.19;;;10.34;71.85
73085;BME280;62974;49.460;10.892;2023-03-23T03:02:52;97092.06;;;10.28;72.34
73085;BME280;62974;49.460;10.892;2023-03-23T03:05:34;97089.38;;;10.28;71.87
73085;BME280;62974;49.460;10.892;2023-03-23T03:08:13;97091.47;;;10.26;72.04
73085;BME280;62974;49.460;10.892;2023-03-23T03:10:48;97093.72;;;10.29;72.01
73085;BME280;62974;49.460;10.892;2023-03-23T03:13:25;97094.56;;;10.30;72.06
73085;BME280;62974;49.460;10.892;2023-03-23T03:15:58;97081.31;;;10.35;71.45
73085;BME280;62974;49.460;10.892;2023-03-23T03:18:28;97075.53;;;10.31;71.71
73085;BME280;62974;49.460;10.892;2023-03-23T03:21:03;97073.28;;;10.35;71.62
73085;BME280;62974;49.460;10.892;2023-03-23T03:23:32;97075.72;;;10.36;71.69
73085;BME280;62974;49.460;10.892;2023-03-23T03:25:59;97072.84;;;10.31;72.10
73085;BME280;62974;49.460;10.892;2023-03-23T03:28:27;97065.41;;;10.33;71.14
73085;BME280;62974;49.460;10.892;2023-03-23T03:30:55;97060.50;;;10.30;71.84
73085;BME280;62974;49.460;10.892;2023-03-23T03:33:27;97068.28;;;10.39;71.19
73085;BME280;62974;49.460;10.892;2023-03-23T03:35:57;97073.53;;;10.27;71.48
73085;BME280;62974;49.460;10.892;2023-03-23T03:38:26;97065.03;;;10.30;71.43
73085;BME280;62974;49.460;10.892;2023-03-23T03:40:53;97064.81;;;10.31;70.82
73085;BME280;62974;49.460;10.892;2023-03-23T03:43:20;97063.81;;;10.26;71.70
73085;BME280;62974;49.460;10.892;2023-03-23T03:45:47;97064.03;;;10.24;71.41
73085;BME280;62974;49.460;10.892;2023-03-23T03:48:13;97075.38;;;10.26;70.88
73085;BME280;62974;49.460;10.892;2023-03-23T03:50:40;97073.34;;;10.22;71.67
73085;BME280;62974;49.460;10.892;2023-03-23T03:53:06;97062.63;;;10.22;71.08
73085;BME280;62974;49.460;10.892;2023-03-23T03:55:34;97066.53;;;10.19;71.42
73085;BME280;62974;49.460;10.892;2023-03-23T03:58:03;97078.72;;;10.22;71.78
73085;BME280;62974;49.460;10.892;2023-03-23T04:00:30;97072.13;;;10.18;72.02
73085;BME280;62974;49.460;10.892;2023-03-23T04:02:57;97071.69;;;10.21;71.42
73085;BME280;62974;49.460;10.892;2023-03-23T04:05:25;97070.03;;;10.20;71.70
73085;BME280;62974;49.460;10.892;2023-03-23T04:07:54;97060.97;;;10.21;71.18
73085;BME280;62974;49.460;10.892;2023-03-23T04:10:27;97059.94;;;10.22;71.60
73085;BME280;62974;49.460;10.892;2023-03-23T04:12:55;97057.25;;;10.22;71.19
73085;BME280;62974;49.460;10.892;2023-03-23T04:15:22;97061.84;;;10.15;72.23
73085;BME280;62974;49.460;10.892;2023-03-23T04:17:49;97068.38;;;10.25;71.84
73085;BME280;62974;49.460;10.892;2023-03-23T04:20:16;97079.16;;;10.19;71.89
73085;BME280;62974;49.460;10.892;2023-03-23T04:22:43;97074.56;;;10.19;71.79
73085;BME280;62974;49.460;10.892;2023-03-23T04:25:11;97064.53;;;10.15;71.68
73085;BME280;62974;49.460;10.892;2023-03-23T04:27:39;97072.06;;;10.24;70.98
73085;BME280;62974;49.460;10.892;2023-03-23T04:30:11;97070.22;;;10.25;71.07
73085;BME280;62974;49.460;10.892;2023-03-23T04:32:38;97069.78;;;10.28;70.58
73085;BME280;62974;49.460;10.892;2023-03-23T04:35:07;97066.53;;;10.19;71.78
73085;BME280;62974;49.460;10.892;2023-03-23T04:37:33;97067.97;;;10.22;71.39
73085;BME280;62974;49.460;10.892;2023-03-23T04:40:00;97068.19;;;10.20;72.08
73085;BME280;62974;49.460;10.892;2023-03-23T04:42:32;97060.69;;;10.29;71.07
73085;BME280;62974;49.460;10.892;2023-03-23T04:44:59;97069.41;;;10.24;71.83
73085;BME280;62974;49.460;10.892;2023-03-23T04:47:32;97064.84;;;10.25;71.24
73085;BME280;62974;49.460;10.892;2023-03-23T04:49:59;97063.56;;;10.34;70.65
73085;BME280;62974;49.460;10.892;2023-03-23T04:52:27;97067.72;;;10.30;70.79
73085;BME280;62974;49.460;10.892;2023-03-23T04:54:53;97067.28;;;10.33;70.61
73085;BME280;62974;49.460;10.892;2023-03-23T04:57:21;97069.97;;;10.33;70.42
73085;BME280;62974;49.460;10.892;2023-03-23T04:59:47;97067.66;;;10.36;70.73
73085;BME280;62974;49.460;10.892;2023-03-23T05:02:14;97067.06;;;10.34;70.12
73085;BME280;62974;49.460;10.892;2023-03-23T05:04:45;97068.94;;;10.34;70.55
73085;BME280;62974;49.460;10.892;2023-03-23T05:07:11;97076.16;;;10.33;71.12
73085;BME280;62974;49.460;10.892;2023-03-23T05:09:38;97065.75;;;10.44;70.29
73085;BME280;62974;49.460;10.892;2023-03-23T05:12:05;97067.41;;;10.45;70.34
73085;BME280;62974;49.460;10.892;2023-03-23T05:14:32;97072.56;;;10.46;70.54
73085;BME280;62974;49.460;10.892;2023-03-23T05:16:58;97072.59;;;10.40;70.85
73085;BME280;62974;49.460;10.892;2023-03-23T05:19:25;97073.22;;;10.42;70.79
73085;BME280;62974;49.460;10.892;2023-03-23T05:21:56;97064.38;;;10.34;70.76
73085;BME280;62974;49.460;10.892;2023-03-23T05:24:28;97056.88;;;10.43;70.03
73085;BME280;62974;49.460;10.892;2023-03-23T05:26:56;97050.47;;;10.44;69.90
73085;BME280;62974;49.460;10.892;2023-03-23T05:29:22;97055.66;;;10.39;70.92
73085;BME280;62974;49.460;10.892;2023-03-23T05:31:49;97051.75;;;10.42;70.47
73085;BME280;62974;49.460;10.892;2023-03-23T05:34:16;97050.91;;;10.41;70.64
73085;BME280;62974;49.460;10.892;2023-03-23T05:36:42;97057.09;;;10.42;70.33
73085;BME280;62974;49.460;10.892;2023-03-23T05:39:12;97054.41;;;10.42;70.33
73085;BME280;62974;49.460;10.892;2023-03-23T05:41:39;97042.22;;;10.46;69.97
73085;BME280;62974;49.460;10.892;2023-03-23T05:44:06;97056.22;;;10.48;70.06
73085;BME280;62974;49.460;10.892;2023-03-23T05:46:33;97054.75;;;10.52;70.03
73085;BME280;62974;49.460;10.892;2023-03-23T05:48:59;97056.59;;;10.51;69.93
73085;BME280;62974;49.460;10.892;2023-03-23T05:51:26;97058.09;;;10.47;70.62
73085;BME280;62974;49.460;10.892;2023-03-23T05:53:52;97061.59;;;10.48;70.97
73085;BME280;62974;49.460;10.892;2023-03-23T05:56:20;97064.84;;;10.56;70.38
73085;BME280;62974;49.460;10.892;2023-03-23T05:58:47;97062.97;;;10.57;70.27
73085;BME280;62974;49.460;10.892;2023-03-23T06:01:13;97064.84;;;10.56;70.14
73085;BME280;62974;49.460;10.892;2023-03-23T06:03:41;97073.34;;;10.53;70.99
73085;BME280;62974;49.460;10.892;2023-03-23T06:06:09;97069.56;;;10.61;70.24
73085;BME280;62974;49.460;10.892;2023-03-23T06:08:37;97061.66;;;10.66;70.42
73085;BME280;62974;49.460;10.892;2023-03-23T06:11:04;97059.75;;;10.73;69.54
73085;BME280;62974;49.460;10.892;2023-03-23T06:13:32;97055.66;;;10.70;70.18
73085;BME280;62974;49.460;10.892;2023-03-23T06:15:59;97053.94;;;10.76;70.15
73085;BME280;62974;49.460;10.892;2023-03-23T06:18:25;97054.16;;;10.74;70.04
73085;BME280;62974;49.460;10.892;2023-03-23T06:20:53;97065.50;;;10.76;70.02
73085;BME280;62974;49.460;10.892;2023-03-23T06:23:20;97068.34;;;10.81;70.19
73085;BME280;62974;49.460;10.892;2023-03-23T06:25:46;97066.25;;;10.83;69.40
73085;BME280;62974;49.460;10.892;2023-03-23T06:28:13;97065.59;;;10.88;69.43
73085;BME280;62974;49.460;10.892;2023-03-23T06:30:41;97075.31;;;10.89;69.99
73085;BME280;62974;49.460;10.892;2023-03-23T06:33:09;97080.06;;;10.87;69.98
73085;BME280;62974;49.460;10.892;2023-03-23T06:35:36;97071.31;;;10.98;69.56
73085;BME280;62974;49.460;10.892;2023-03-23T06:38:02;97078.38;;;10.93;70.05
73085;BME280;62974;49.460;10.892;2023-03-23T06:40:29;97072.97;;;11.17;68.97
73085;BME280;62974;49.460;10.892;2023-03-23T06:42:56;97077.81;;;11.09;69.36
73085;BME280;62974;49.460;10.892;2023-03-23T06:45:24;97076.16;;;11.08;69.93
73085;BME280;62974;49.460;10.892;2023-03-23T06:47:52;97089.75;;;11.13;70.00
73085;BME280;62974;49.460;10.892;2023-03-23T06:50:18;97086.34;;;11.24;70.17
73085;BME280;62974;49.460;10.892;2023-03-23T06:52:45;97093.19;;;11.20;70.47
73085;BME280;62974;49.460;10.892;2023-03-23T06:55:12;97085.59;;;11.35;69.08
73085;BME280;62974;49.460;10.892;2023-03-23T06:57:38;97082.69;;;11.37;69.96
73085;BME280;62974;49.460;10.892;2023-03-23T07:00:06;97081.13;;;11.47;69.29
73085;BME280;62974;49.460;10.892;2023-03-23T07:02:38;97085.09;;;11.63;68.96
73085;BME280;62974;49.460;10.892;2023-03-23T07:05:07;97089.72;;;11.56;69.25
73085;BME280;62974;49.460;10.892;2023-03-23T07:07:34;97095.47;;;11.41;69.74
73085;BME280;62974;49.460;10.892;2023-03-23T07:10:01;97091.97;;;11.41;69.59
73085;BME280;62974;49.460;10.892;2023-03-23T07:12:28;97100.03;;;11.41;69.68
73085;BME280;62974;49.460;10.892;2023-03-23T07:14:54;97105.41;;;11.41;69.60
73085;BME280;62974;49.460;10.892;2023-03-23T07:17:21;97106.38;;;11.46;70.58
73085;BME280;62974;49.460;10.892;2023-03-23T07:19:47;97107.25;;;11.40;70.27
73085;BME280;62974;49.460;10.892;2023-03-23T07:22:15;97110.03;;;11.34;71.11
73085;BME280;62974;49.460;10.892;2023-03-23T07:24:42;97105.47;;;11.34;70.80
73085;BME280;62974;49.460;10.892;2023-03-23T07:27:09;97115.41;;;11.34;70.84
73085;BME280;62974;49.460;10.892;2023-03-23T07:29:35;97110.16;;;11.39;70.77
73085;BME280;62974;49.460;10.892;2023-03-23T07:32:04;97106.34;;;11.28;71.05
73085;BME280;62974;49.460;10.892;2023-03-23T07:34:31;97104.66;;;11.34;70.89
73085;BME280;62974;49.460;10.892;2023-03-23T07:36:58;97123.03;;;11.37;71.32
73085;BME280;62974;49.460;10.892;2023-03-23T07:39:27;97115.50;;;11.45;70.67
73085;BME280;62974;49.460;10.892;2023-03-23T07:41:53;97122.56;;;11.40;71.49
73085;BME280;62974;49.460;10.892;2023-03-23T07:44:20;97131.47;;;11.40;73.02
73085;BME280;62974;49.460;10.892;2023-03-23T07:46:47;97137.38;;;11.49;73.69
73085;BME280;62974;49.460;10.892;2023-03-23T07:49:14;97131.09;;;11.55;74.92
73085;BME280;62974;49.460;10.892;2023-03-23T07:51:41;97122.16;;;11.61;74.66
73085;BME280;62974;49.460;10.892;2023-03-23T07:54:07;97127.53;;;11.61;74.57
73085;BME280;62974;49.460;10.892;2023-03-23T07:56:36;97133.72;;;11.61;74.98
73085;BME280;62974;49.460;10.892;2023-03-23T07:59:05;97139.47;;;11.65;74.84
73085;BME280;62974;49.460;10.892;2023-03-23T08:01:32;97134.47;;;11.68;74.39
73085;BME280;62974;49.460;10.892;2023-03-23T08:03:59;97134.09;;;11.65;74.54
73085;BME280;62974;49.460;10.892;2023-03-23T08:06:26;97132.81;;;11.67;73.91
73085;BME280;62974;49.460;10.892;2023-03-23T08:09:01;97140.81;;;11.56;74.68
73085;BME280;62974;49.460;10.892;2023-03-23T08:11:28;97145.59;;;11.54;74.59
73085;BME280;62974;49.460;10.892;2023-03-23T08:13:56;97147.84;;;11.57;73.73
73085;BME280;62974;49.460;10.892;2023-03-23T08:16:22;97151.41;;;11.51;73.75
73085;BME280;62974;49.460;10.892;2023-03-23T08:18:49;97142.47;;;11.57;73.39
73085;BME280;62974;49.460;10.892;2023-03-23T08:21:16;97161.66;;;11.60;74.04
73085;BME280;62974;49.460;10.892;2023-03-23T08:23:43;97159.91;;;11.48;74.30
73085;BME280;62974;49.460;10.892;2023-03-23T08:26:10;97154.34;;;11.49;74.33
73085;BME280;62974;49.460;10.892;2023-03-23T08:28:37;97159.53;;;11.44;74.89
73085;BME280;62974;49.460;10.892;2023-03-23T08:31:08;97158.69;;;11.50;74.11
73085;BME280;62974;49.460;10.892;2023-03-23T08:33:35;97149.53;;;11.51;73.79
73085;BME280;62974;49.460;10.892;2023-03-23T08:36:03;97160.53;;;11.50;74.49
73085;BME280;62974;49.460;10.892;2023-03-23T08:38:32;97163.59;;;11.53;74.29
73085;BME280;62974;49.460;10.892;2023-03-23T08:40:58;97166.88;;;11.55;74.75
73085;BME280;62974;49.460;10.892;2023-03-23T08:43:25;97164.81;;;11.57;74.91
73085;BME280;62974;49.460;10.892;2023-03-23T08:45:52;97161.88;;;11.59;75.25
73085;BME280;62974;49.460;10.892;2023-03-23T08:48:20;97172.22;;;11.62;75.17
73085;BME280;62974;49.460;10.892;2023-03-23T08:50:49;97169.94;;;11.59;75.86
73085;BME280;62974;49.460;10.892;2023-03-23T08:53:17;97172.78;;;11.64;75.14
73085;BME280;62974;49.460;10.892;2023-03-23T08:55:43;97175.00;;;11.73;75.20
73085;BME280;62974;49.460;10.892;2023-03-23T08:58:10;97174.19;;;11.73;74.86
73085;BME280;62974;49.460;10.892;2023-03-23T09:00:37;97179.94;;;11.76;75.26
73085;BME280;62974;49.460;10.892;2023-03-23T09:03:04;97186.72;;;11.79;75.49
73085;BME280;62974;49.460;10.892;2023-03-23T09:05:33;97188.25;;;11.93;75.63
73085;BME280;62974;49.460;10.892;2023-03-23T09:08:01;97182.19;;;11.98;73.98
73085;BME280;62974;49.460;10.892;2023-03-23T09:10:29;97182.78;;;12.00;74.60
73085;BME280;62974;49.460;10.892;2023-03-23T09:12:56;97192.88;;;12.04;74.40
73085;BME280;62974;49.460;10.892;2023-03-23T09:15:23;97193.09;;;12.03;74.24
73085;BME280;62974;49.460;10.892;2023-03-23T09:17:51;97197.13;;;12.12;73.70
73085;BME280;62974;49.460;10.892;2023-03-23T09:20:20;97192.50;;;12.19;74.12
73085;BME280;62974;49.460;10.892;2023-03-23T09:22:50;97178.81;;;12.50;72.13
73085;BME280;62974;49.460;10.892;2023-03-23T09:25:21;97184.47;;;12.49;72.73
73085;BME280;62974;49.460;10.892;2023-03-23T09:27:49;97184.69;;;12.47;72.03
73085;BME280;62974;49.460;10.892;2023-03-23T09:30:19;97195.94;;;12.26;73.60
73085;BME280;62974;49.460;10.892;2023-03-23T09:32:47;97187.09;;;12.19;73.91
73085;BME280;62974;49.460;10.892;2023-03-23T09:35:15;97197.03;;;12.37;73.18
73085;BME280;62974;49.460;10.892;2023-03-23T09:37:43;97189.72;;;12.74;72.62
73085;BME280;62974;49.460;10.892;2023-03-23T09:40:14;97191.13;;;12.76;72.38
73085;BME280;62974;49.460;10.892;2023-03-23T09:43:04;97192.63;;;12.72;72.14
73085;BME280;62974;49.460;10.892;2023-03-23T09:45:39;97199.47;;;12.86;72.46
73085;BME280;62974;49.460;10.892;2023-03-23T09:48:33;97188.13;;;13.26;70.66
73085;BME280;62974;49.460;10.892;2023-03-23T09:51:08;97192.91;;;13.24;70.56
73085;BME280;62974;49.460;10.892;2023-03-23T09:53:41;97202.63;;;12.83;71.62
73085;BME280;62974;49.460;10.892;2023-03-23T09:56:12;97204.47;;;12.83;71.94
73085;BME280;62974;49.460;10.892;2023-03-23T09:58:46;97203.16;;;13.03;71.81
73085;BME280;62974;49.460;10.892;2023-03-23T10:01:17;97217.09;;;12.70;72.27
73085;BME280;62974;49.460;10.892;2023-03-23T10:03:46;97217.31;;;12.99;72.92
73085;BME280;62974;49.460;10.892;2023-03-23T10:06:15;97222.81;;;12.92;72.91
73085;BME280;62974;49.460;10.892;2023-03-23T10:08:45;97233.00;;;12.60;74.91
73085;BME280;62974;49.460;10.892;2023-03-23T10:11:19;97234.00;;;12.78;74.96
73085;BME280;62974;49.460;10.892;2023-03-23T10:14:06;97244.28;;;12.51;76.06
73085;BME280;62974;49.460;10.892;2023-03-23T10:16:38;97242.72;;;12.43;75.50
73085;BME280;62974;49.460;10.892;2023-03-23T10:19:11;97249.25;;;12.54;75.69
73085;BME280;62974;49.460;10.892;2023-03-23T10:21:47;97255.81;;;12.40;75.84
73085;BME280;62974;49.460;10.892;2023-03-23T10:24:19;97252.66;;;12.43;75.53
73085;BME280;62974;49.460;10.892;2023-03-23T10:26:55;97251.63;;;12.44;74.09
73085;BME280;62974;49.460;10.892;2023-03-23T10:29:29;97252.38;;;12.69;73.09
73085;BME280;62974;49.460;10.892;2023-03-23T10:31:59;97255.13;;;12.62;73.83
73085;BME280;62974;49.460;10.892;2023-03-23T10:34:31;97249.34;;;12.77;73.17
73085;BME280;62974;49.460;10.892;2023-03-23T10:37:05;97263.56;;;12.66;73.65
73085;BME280;62974;49.460;10.892;2023-03-23T10:39:40;97260.25;;;12.82;72.46
73085;BME280;62974;49.460;10.892;2023-03-23T10:42:09;97263.91;;;12.88;72.22
73085;BME280;62974;49.460;10.892;2023-03-23T10:44:36;97267.97;;;12.79;73.69
73085;BME280;62974;49.460;10.892;2023-03-23T10:47:05;97260.56;;;12.74;73.62
73085;BME280;62974;49.460;10.892;2023-03-23T10:49:39;97262.94;;;12.82;73.77
73085;BME280;62974;49.460;10.892;2023-03-23T10:52:18;97259.03;;;12.96;72.97
73085;BME280;62974;49.460;10.892;2023-03-23T10:54:51;97261.22;;;12.88;73.19
73085;BME280;62974;49.460;10.892;2023-03-23T10:57:24;97263.97;;;12.69;74.29
73085;BME280;62974;49.460;10.892;2023-03-23T11:00:04;97261.16;;;12.76;74.61
73085;BME280;62974;49.460;10.892;2023-03-23T11:02:36;97259.47;;;12.63;74.96
73085;BME280;62974;49.460;10.892;2023-03-23T11:05:09;97265.28;;;12.79;74.86
73085;BME280;62974;49.460;10.892;2023-03-23T11:07:39;97263.34;;;12.67;74.79
73085;BME280;62974;49.460;10.892;2023-03-23T11:10:16;97262.38;;;12.62;75.73
73085;BME280;62974;49.460;10.892;2023-03-23T11:12:45;97263.66;;;12.78;75.12
73085;BME280;62974;49.460;10.892;2023-03-23T11:15:32;97267.97;;;12.79;74.53
73085;BME280;62974;49.460;10.892;2023-03-23T11:18:00;97271.03;;;12.82;74.82
73085;BME280;62974;49.460;10.892;2023-03-23T11:20:28;97276.50;;;12.76;75.82
73085;BME280;62974;49.460;10.892;2023-03-23T11:22:56;97273.44;;;12.72;75.59
73085;BME280;62974;49.460;10.892;2023-03-23T11:25:23;97279.00;;;12.77;75.38
73085;BME280;62974;49.460;10.892;2023-03-23T11:27:51;97283.16;;;12.91;75.80
73085;BME280;62974;49.460;10.892;2023-03-23T11:30:22;97287.50;;;12.74;75.37
73085;BME280;62974;49.460;10.892;2023-03-23T11:32:50;97284.38;;;12.77;75.77
73085;BME280;62974;49.460;10.892;2023-03-23T11:35:20;97286.97;;;12.84;75.50
73085;BME280;62974;49.460;10.892;2023-03-23T11:37:50;97287.59;;;12.86;75.80
73085;BME280;62974;49.460;10.892;2023-03-23T11:40:19;97283.81;;;12.87;76.24
73085;BME280;62974;49.460;10.892;2023-03-23T11:42:48;97285.69;;;12.86;76.08
73085;BME280;62974;49.460;10.892;2023-03-23T11:45:20;97284.66;;;12.87;76.36
73085;BME280;62974;49.460;10.892;2023-03-23T11:47:59;97282.88;;;12.81;77.14
73085;BME280;62974;49.460;10.892;2023-03-23T11:50:29;97285.53;;;12.99;77.18
73085;BME280;62974;49.460;10.892;2023-03-23T11:53:02;97285.84;;;12.91;77.17
73085;BME280;62974;49.460;10.892;2023-03-23T11:55:34;97282.94;;;12.93;77.70
73085;BME280;62974;49.460;10.892;2023-03-23T11:58:10;97279.31;;;13.17;78.05
73085;BME280;62974;49.460;10.892;2023-03-23T12:00:41;97275.66;;;12.93;77.60
73085;BME280;62974;49.460;10.892;2023-03-23T12:06:21;97279.31;;;13.17;77.04
73085;BME280;62974;49.460;10.892;2023-03-23T12:09:02;97257.44;;;13.48;75.65
73085;BME280;62974;49.460;10.892;2023-03-23T12:11:39;97255.59;;;13.60;75.74
73085;BME280;62974;49.460;10.892;2023-03-23T12:14:15;97256.97;;;13.40;76.26
73085;BME280;62974;49.460;10.892;2023-03-23T12:16:55;97252.97;;;13.42;75.89
73085;BME280;62974;49.460;10.892;2023-03-23T12:19:30;97257.88;;;13.34;76.51
73085;BME280;62974;49.460;10.892;2023-03-23T12:22:04;97254.72;;;13.37;76.17
73085;BME280;62974;49.460;10.892;2023-03-23T12:24:46;97250.19;;;13.49;75.93
73085;BME280;62974;49.460;10.892;2023-03-23T12:27:20;97247.25;;;13.62;75.41
73085;BME280;62974;49.460;10.892;2023-03-23T12:29:59;97233.88;;;13.55;75.11
73085;BME280;62974;49.460;10.892;2023-03-23T12:32:40;97240.78;;;13.51;75.08
73085;BME280;62974;49.460;10.892;2023-03-23T12:35:19;97249.03;;;13.56;74.90
73085;BME280;62974;49.460;10.892;2023-03-23T12:37:56;97247.22;;;13.50;75.39
73085;BME280;62974;49.460;10.892;2023-03-23T12:40:47;97244.91;;;13.65;74.63
73085;BME280;62974;49.460;10.892;2023-03-23T12:43:23;97245.84;;;13.59;74.86
73085;BME280;62974;49.460;10.892;2023-03-23T12:46:03;97250.78;;;13.86;74.12
73085;BME280;62974;49.460;10.892;2023-03-23T12:48:39;97251.38;;;13.64;74.08
73085;BME280;62974;49.460;10.892;2023-03-23T12:51:11;97243.41;;;13.81;74.58
73085;BME280;62974;49.460;10.892;2023-03-23T12:53:47;97247.97;;;13.81;72.71
73085;BME280;62974;49.460;10.892;2023-03-23T12:56:20;97245.03;;;13.71;74.07
73085;BME280;62974;49.460;10.892;2023-03-23T12:58:51;97250.34;;;13.89;72.88
73085;BME280;62974;49.460;10.892;2023-03-23T13:01:24;97239.53;;;14.00;72.68
73085;BME280;62974;49.460;10.892;2023-03-23T13:03:57;97238.47;;;13.78;73.01
73085;BME280;62974;49.460;10.892;2023-03-23T13:06:29;97241.88;;;13.85;72.78
73085;BME280;62974;49.460;10.892;2023-03-23T13:09:01;97241.75;;;13.69;73.10
73085;BME280;62974;49.460;10.892;2023-03-23T13:11:32;97248.56;;;13.71;72.82